createdAt,value
2023-04-23T00:00:19.060Z,4.13
2023-04-23T00:02:49.886Z,5.37
2023-04-23T00:05:17.989Z,4.70
2023-04-23T00:07:45.941Z,5.30
2023-04-23T00:10:15.378Z,4.10
2023-04-23T00:12:43.872Z,6.13
2023-04-23T00:15:13.507Z,5.50
2023-04-23T00:17:41.120Z,4.20
2023-04-23T00:20:10.488Z,5.47
2023-04-23T00:22:38.055Z,5.90
2023-04-23T00:25:06.217Z,4.67
2023-04-23T00:27:37.096Z,6.90
2023-04-23T00:30:05.370Z,5.10
2023-04-23T00:32:33.016Z,4.57
2023-04-23T00:35:01.010Z,4.70
2023-04-23T00:37:28.700Z,4.13
2023-04-23T00:39:56.322Z,4.10
2023-04-23T00:42:23.909Z,4.13
2023-04-23T00:44:53.641Z,5.00
2023-04-23T00:47:21.579Z,7.20
2023-04-23T00:49:50.630Z,4.83
2023-04-23T00:52:18.268Z,8.57
2023-04-23T00:54:45.905Z,6.73
2023-04-23T00:57:14.316Z,6.33
2023-04-23T00:59:42.310Z,4.63
2023-04-23T01:02:11.497Z,6.23
2023-04-23T01:04:39.626Z,4.83
2023-04-23T01:07:07.691Z,7.07
2023-04-23T01:09:35.427Z,5.30
2023-04-23T01:12:04.870Z,6.20
2023-04-23T01:14:32.787Z,5.47
2023-04-23T01:17:01.102Z,5.60
2023-04-23T01:19:30.250Z,6.57
2023-04-23T01:22:01.096Z,6.67
2023-04-23T01:24:30.675Z,5.53
2023-04-23T01:26:58.660Z,8.03
2023-04-23T01:29:27.105Z,6.90
2023-04-23T01:31:55.636Z,5.57
2023-04-23T01:34:23.529Z,6.63
2023-04-23T01:36:53.123Z,7.20
2023-04-23T01:39:20.867Z,7.20
2023-04-23T01:41:50.038Z,7.27
2023-04-23T01:44:17.870Z,9.47
2023-04-23T01:46:45.697Z,10.13
2023-04-23T01:49:13.934Z,8.40
2023-04-23T01:51:41.621Z,7.07
2023-04-23T01:54:09.130Z,7.93
2023-04-23T01:56:36.760Z,6.30
2023-04-23T01:59:07.220Z,11.80
2023-04-23T02:01:45.473Z,10.50
2023-04-23T02:04:14.462Z,7.33
2023-04-23T02:06:43.415Z,8.50
2023-04-23T02:09:11.562Z,6.90
2023-04-23T02:11:39.401Z,7.60
2023-04-23T02:14:23.952Z,10.07
2023-04-23T02:16:51.559Z,7.43
2023-04-23T02:19:19.120Z,10.80
2023-04-23T02:21:47.616Z,10.10
2023-04-23T02:24:15.207Z,16.20
2023-04-23T02:26:42.809Z,10.30
2023-04-23T02:29:11.808Z,10.87
2023-04-23T02:31:39.458Z,9.20
2023-04-23T02:34:07.128Z,8.73
2023-04-23T02:36:34.718Z,9.63
2023-04-23T02:39:02.311Z,8.23
2023-04-23T02:41:30.005Z,10.40
2023-04-23T02:43:57.690Z,8.43
2023-04-23T02:46:26.961Z,11.17
2023-04-23T02:48:54.562Z,10.50
2023-04-23T02:51:22.197Z,7.43
2023-04-23T02:53:49.960Z,11.10
2023-04-23T02:56:17.492Z,12.10
2023-04-23T02:58:45.096Z,8.03
2023-04-23T03:01:12.771Z,8.63
2023-04-23T03:03:42.044Z,13.53
2023-04-23T03:06:10.008Z,8.87
2023-04-23T03:08:37.609Z,8.10
2023-04-23T03:11:05.233Z,8.10
2023-04-23T03:13:32.841Z,8.00
2023-04-23T03:16:00.681Z,7.87
2023-04-23T03:18:28.388Z,12.20
2023-04-23T03:20:57.361Z,9.17
2023-04-23T03:23:25.486Z,10.30
2023-04-23T03:25:53.121Z,9.47
2023-04-23T03:28:20.709Z,6.83
2023-04-23T03:30:48.378Z,8.87
2023-04-23T03:33:17.656Z,8.63
2023-04-23T03:35:45.525Z,6.60
2023-04-23T03:38:14.461Z,12.60
2023-04-23T03:40:42.057Z,9.07
2023-04-23T03:43:09.609Z,7.03
2023-04-23T03:45:37.434Z,11.20
2023-04-23T03:48:05.368Z,8.07
2023-04-23T03:50:34.367Z,7.60
2023-04-23T03:53:02.160Z,10.23
2023-04-23T03:55:31.071Z,9.87
2023-04-23T03:58:01.540Z,6.53
2023-04-23T04:00:29.291Z,10.40
2023-04-23T04:02:57.064Z,10.80
2023-04-23T04:05:24.873Z,9.83
2023-04-23T04:07:52.512Z,9.30
2023-04-23T04:10:20.285Z,6.67
2023-04-23T04:12:49.323Z,6.53
2023-04-23T04:15:17.527Z,9.37
2023-04-23T04:17:45.829Z,7.67
2023-04-23T04:20:13.671Z,7.60
2023-04-23T04:22:41.318Z,6.97
2023-04-23T04:25:09.658Z,7.87
2023-04-23T04:27:37.581Z,8.23
2023-04-23T04:30:08.079Z,7.30
2023-04-23T04:32:35.668Z,6.27
2023-04-23T04:35:03.944Z,6.67
2023-04-23T04:37:32.000Z,7.00
2023-04-23T04:40:01.335Z,7.17
2023-04-23T04:42:28.948Z,8.23
2023-04-23T04:44:58.261Z,8.37
2023-04-23T04:47:27.803Z,9.90
2023-04-23T04:49:57.492Z,7.00
2023-04-23T04:52:25.448Z,6.90
2023-04-23T04:54:53.184Z,8.23
2023-04-23T04:57:22.799Z,8.23
2023-04-23T04:59:51.334Z,7.93
2023-04-23T05:02:20.105Z,10.23
2023-04-23T05:04:49.224Z,8.70
2023-04-23T05:07:17.023Z,8.00
2023-04-23T05:09:45.291Z,7.80
2023-04-23T05:12:12.913Z,9.10
2023-04-23T05:14:40.780Z,6.83
2023-04-23T05:17:10.642Z,6.97
2023-04-23T05:19:38.174Z,7.90
2023-04-23T05:22:07.198Z,6.50
2023-04-23T05:24:34.800Z,6.40
2023-04-23T05:27:02.522Z,6.63
2023-04-23T05:29:30.228Z,7.57
2023-04-23T05:31:57.896Z,5.93
2023-04-23T05:34:25.509Z,5.33
2023-04-23T05:36:53.100Z,5.20
2023-04-23T05:39:25.142Z,6.53
2023-04-23T05:41:52.941Z,6.00
2023-04-23T05:44:20.607Z,4.47
2023-04-23T05:46:48.153Z,7.13
2023-04-23T05:49:16.029Z,5.33
2023-04-23T05:51:44.730Z,6.60
2023-04-23T05:54:13.660Z,4.10
2023-04-23T05:56:43.050Z,3.87
2023-04-23T05:59:10.891Z,4.03
2023-04-23T06:01:38.601Z,5.33
2023-04-23T06:04:06.427Z,4.23
2023-04-23T06:06:35.844Z,6.67
2023-04-23T06:09:05.349Z,7.30
2023-04-23T06:11:33.107Z,6.97
2023-04-23T06:14:02.177Z,5.33
2023-04-23T06:16:29.826Z,4.13
2023-04-23T06:18:57.514Z,4.73
2023-04-23T06:21:29.816Z,4.23
2023-04-23T06:23:57.391Z,3.60
2023-04-23T06:26:25.363Z,4.43
2023-04-23T06:28:53.129Z,5.13
2023-04-23T06:31:22.932Z,5.80
2023-04-23T06:33:50.658Z,3.43
2023-04-23T06:36:18.254Z,3.30
2023-04-23T06:38:46.028Z,3.50
2023-04-23T06:41:13.939Z,4.93
2023-04-23T06:43:41.569Z,3.30
2023-04-23T06:46:10.081Z,4.47
2023-04-23T06:48:38.995Z,3.73
2023-04-23T06:51:07.004Z,8.03
2023-04-23T06:53:35.054Z,6.47
2023-04-23T06:56:02.742Z,4.83
2023-04-23T06:58:32.369Z,3.70
2023-04-23T07:01:01.154Z,3.60
2023-04-23T07:03:29.132Z,3.70
2023-04-23T07:06:07.590Z,4.53
2023-04-23T07:08:36.306Z,4.80
2023-04-23T07:11:04.171Z,4.40
2023-04-23T07:13:31.887Z,3.17
2023-04-23T07:15:59.722Z,4.20
2023-04-23T07:18:27.718Z,3.60
2023-04-23T07:20:55.843Z,3.27
2023-04-23T07:23:25.084Z,4.30
2023-04-23T07:25:53.227Z,7.17
2023-04-23T07:28:20.815Z,6.67
2023-04-23T07:30:49.088Z,3.70
2023-04-23T07:33:17.190Z,3.77
2023-04-23T07:35:44.882Z,3.07
2023-04-23T07:38:12.459Z,2.87
2023-04-23T07:40:42.583Z,3.70
2023-04-23T07:43:10.680Z,4.57
2023-04-23T07:45:39.375Z,3.37
2023-04-23T07:48:07.228Z,4.87
2023-04-23T07:50:34.991Z,3.33
2023-04-23T07:53:03.052Z,6.10
2023-04-23T07:55:31.719Z,5.10
2023-04-23T07:58:00.696Z,4.60
2023-04-23T08:00:30.791Z,3.30
2023-04-23T08:03:00.133Z,3.57
2023-04-23T08:05:28.511Z,4.00
2023-04-23T08:07:56.110Z,3.97
2023-04-23T08:10:23.745Z,4.30
2023-04-23T08:12:51.328Z,4.03
2023-04-23T08:15:20.309Z,4.37
2023-04-23T08:17:48.065Z,5.47
2023-04-23T08:20:15.697Z,3.50
2023-04-23T08:22:43.286Z,4.60
2023-04-23T08:25:11.108Z,6.13
2023-04-23T08:27:38.667Z,3.93
2023-04-23T08:30:08.351Z,6.80
2023-04-23T08:32:37.909Z,5.50
2023-04-23T08:35:06.316Z,8.90
2023-04-23T08:37:35.106Z,5.83
2023-04-23T08:40:02.910Z,4.63
2023-04-23T08:42:38.235Z,5.53
2023-04-23T08:45:07.361Z,5.63
2023-04-23T08:47:35.633Z,4.03
2023-04-23T08:50:06.537Z,5.73
2023-04-23T08:52:36.047Z,3.87
2023-04-23T08:55:10.551Z,4.03
2023-04-23T08:57:40.628Z,4.37
2023-04-23T09:00:11.085Z,5.00
2023-04-23T09:02:41.083Z,5.47
2023-04-23T09:05:12.277Z,13.10
2023-04-23T09:07:40.768Z,3.90
2023-04-23T09:10:11.330Z,5.70
2023-04-23T09:12:41.349Z,3.40
2023-04-23T09:15:12.665Z,3.10
2023-04-23T09:17:42.093Z,2.73
2023-04-23T09:20:14.866Z,3.47
2023-04-23T09:22:46.029Z,5.03
2023-04-23T09:25:16.192Z,2.93
2023-04-23T09:27:43.916Z,3.23
2023-04-23T09:30:13.544Z,4.03
2023-04-23T09:32:47.011Z,3.37
2023-04-23T09:35:19.762Z,3.23
2023-04-23T09:37:49.674Z,5.47
2023-04-23T09:40:18.689Z,3.43
2023-04-23T09:42:49.744Z,10.13
2023-04-23T09:45:17.626Z,2.20
2023-04-23T09:47:50.669Z,2.33
2023-04-23T09:50:20.203Z,2.60
2023-04-23T09:52:55.936Z,2.90
2023-04-23T09:55:29.182Z,2.20
2023-04-23T09:57:56.886Z,3.23
2023-04-23T10:00:29.177Z,2.70
2023-04-23T10:02:56.896Z,2.30
2023-04-23T10:05:29.378Z,4.50
2023-04-23T10:08:07.362Z,2.27
2023-04-23T10:10:43.437Z,2.40
2023-04-23T10:13:23.224Z,8.13
2023-04-23T10:15:51.307Z,2.40
2023-04-23T10:18:21.369Z,2.40
2023-04-23T10:20:51.360Z,3.17
2023-04-23T10:23:23.015Z,2.40
2023-04-23T10:25:54.082Z,3.10
2023-04-23T10:28:29.038Z,3.57
2023-04-23T10:30:58.189Z,4.13
2023-04-23T10:33:29.877Z,2.50
2023-04-23T10:36:03.029Z,2.23
2023-04-23T10:38:31.167Z,2.63
2023-04-23T10:41:00.406Z,2.97
2023-04-23T10:43:28.868Z,2.63
2023-04-23T10:45:56.654Z,3.00
2023-04-23T10:48:24.507Z,4.50
2023-04-23T10:51:14.572Z,3.27
2023-04-23T10:53:48.100Z,4.03
2023-04-23T10:56:16.572Z,4.60
2023-04-23T10:58:52.045Z,3.13
2023-04-23T11:01:25.508Z,4.80
2023-04-23T11:03:53.702Z,4.83
2023-04-23T11:06:56.397Z,2.40
2023-04-23T11:09:31.993Z,4.23
2023-04-23T11:12:01.405Z,5.17
2023-04-23T11:14:49.207Z,2.80
2023-04-23T11:17:18.587Z,3.03
2023-04-23T11:20:11.316Z,2.73
2023-04-23T11:22:42.841Z,2.17
2023-04-23T11:25:12.204Z,2.10
2023-04-23T11:27:41.916Z,3.47
2023-04-23T11:30:14.201Z,3.13
2023-04-23T11:32:42.841Z,2.80
2023-04-23T11:35:13.623Z,3.73
2023-04-23T11:37:48.309Z,3.90
2023-04-23T11:40:19.516Z,4.53
2023-04-23T11:42:49.696Z,1.80
2023-04-23T11:45:18.842Z,2.80
2023-04-23T11:47:47.667Z,2.33
2023-04-23T11:50:19.545Z,1.97
2023-04-23T11:52:51.596Z,2.70
2023-04-23T11:55:20.180Z,4.70
2023-04-23T11:58:02.014Z,2.30
2023-04-23T12:00:29.745Z,2.27
2023-04-23T12:02:59.332Z,1.73
2023-04-23T12:05:30.454Z,2.87
2023-04-23T12:08:10.328Z,2.13
2023-04-23T12:10:45.252Z,2.07
2023-04-23T12:13:21.019Z,2.90
2023-04-23T12:15:50.730Z,2.37
2023-04-23T12:18:18.831Z,3.73
2023-04-23T12:20:47.145Z,3.53
2023-04-23T12:23:19.423Z,2.00
2023-04-23T12:25:47.268Z,2.17
2023-04-23T12:28:14.955Z,3.53
2023-04-23T12:30:45.546Z,2.97
2023-04-23T12:33:16.161Z,2.43
2023-04-23T12:35:44.977Z,3.47
2023-04-23T12:38:24.854Z,2.20
2023-04-23T12:40:53.007Z,2.40
2023-04-23T12:43:20.969Z,4.83
2023-04-23T12:45:49.233Z,2.40
2023-04-23T12:48:22.737Z,2.90
2023-04-23T12:50:51.678Z,3.17
2023-04-23T12:53:20.733Z,4.20
2023-04-23T12:58:33.470Z,2.40
2023-04-23T13:01:01.308Z,2.00
2023-04-23T13:03:29.281Z,2.80
2023-04-23T13:05:57.138Z,2.23
2023-04-23T13:08:24.963Z,1.80
2023-04-23T13:10:54.045Z,2.20
2023-04-23T13:13:21.974Z,3.53
2023-04-23T13:15:49.614Z,2.20
2023-04-23T13:18:17.236Z,1.90
2023-04-23T13:20:45.062Z,1.83
2023-04-23T13:23:13.289Z,2.60
2023-04-23T13:25:41.381Z,4.23
2023-04-23T13:28:11.538Z,2.70
2023-04-23T13:30:42.066Z,1.87
2023-04-23T13:33:09.877Z,1.70
2023-04-23T13:35:38.260Z,1.57
2023-04-23T13:38:06.064Z,1.67
2023-04-23T13:40:33.702Z,7.63
2023-04-23T13:43:01.589Z,1.77
2023-04-23T13:45:30.581Z,3.60
2023-04-23T13:47:58.372Z,1.93
2023-04-23T13:50:26.240Z,1.70
2023-04-23T13:52:53.976Z,4.07
2023-04-23T13:55:22.983Z,1.83
2023-04-23T13:57:52.331Z,1.70
2023-04-23T14:00:20.032Z,1.33
2023-04-23T14:02:49.303Z,4.10
2023-04-23T14:05:17.328Z,1.47
2023-04-23T14:07:45.073Z,2.77
2023-04-23T14:10:12.851Z,1.80
2023-04-23T14:12:40.951Z,1.57
2023-04-23T14:15:10.795Z,1.97
2023-04-23T14:17:39.265Z,1.83
2023-04-23T14:20:09.654Z,8.17
2023-04-23T14:22:37.391Z,1.50
2023-04-23T14:25:09.735Z,2.30
2023-04-23T14:27:41.871Z,1.70
2023-04-23T14:30:20.682Z,2.13
2023-04-23T14:32:49.897Z,3.10
2023-04-23T14:35:26.781Z,3.03
2023-04-23T14:38:04.227Z,1.60
2023-04-23T14:40:31.860Z,1.80
2023-04-23T14:43:08.129Z,1.67
2023-04-23T14:45:42.584Z,2.40
2023-04-23T14:48:10.559Z,1.30
2023-04-23T14:50:39.723Z,1.47
2023-04-23T14:53:09.947Z,1.43
2023-04-23T14:55:38.935Z,1.60
2023-04-23T14:58:06.614Z,2.83
2023-04-23T15:00:34.893Z,3.37
2023-04-23T15:03:08.362Z,1.57
2023-04-23T15:05:36.851Z,2.80
2023-04-23T15:08:05.983Z,1.73
2023-04-23T15:10:33.710Z,2.43
2023-04-23T15:13:07.860Z,3.80
2023-04-23T15:15:45.306Z,3.83
2023-04-23T15:18:14.734Z,1.70
2023-04-23T15:20:42.780Z,2.13
2023-04-23T15:23:12.915Z,1.53
2023-04-23T15:25:41.037Z,3.33
2023-04-23T15:28:08.758Z,1.80
2023-04-23T15:30:36.847Z,1.63
2023-04-23T15:33:04.958Z,1.80
2023-04-23T15:35:32.651Z,3.77
2023-04-23T15:38:01.338Z,1.77
2023-04-23T15:40:30.747Z,1.23
2023-04-23T15:42:59.719Z,2.00
2023-04-23T15:45:29.908Z,1.90
2023-04-23T15:47:57.812Z,1.83
2023-04-23T15:50:27.011Z,4.40
2023-04-23T15:52:54.979Z,2.60
2023-04-23T15:55:22.971Z,1.30
2023-04-23T15:57:52.053Z,2.60
2023-04-23T16:00:19.935Z,2.80
2023-04-23T16:02:47.668Z,1.63
2023-04-23T16:05:16.768Z,1.70
2023-04-23T16:07:44.741Z,3.20
2023-04-23T16:10:12.635Z,1.57
2023-04-23T16:12:45.350Z,1.40
2023-04-23T16:15:14.609Z,1.27
2023-04-23T16:18:05.249Z,1.30
2023-04-23T16:20:38.481Z,3.73
2023-04-23T16:23:08.373Z,1.70
2023-04-23T16:25:36.712Z,1.40
2023-04-23T16:28:05.099Z,1.30
2023-04-23T16:30:34.703Z,1.67
2023-04-23T16:33:02.614Z,1.93
2023-04-23T16:35:30.403Z,3.90
2023-04-23T16:37:58.357Z,2.93
2023-04-23T16:40:26.453Z,7.20
2023-04-23T16:42:54.413Z,3.10
2023-04-23T16:45:23.753Z,2.17
2023-04-23T16:47:53.756Z,1.90
2023-04-23T16:50:23.449Z,1.50
2023-04-23T16:52:51.295Z,1.57
2023-04-23T16:55:19.721Z,2.20
2023-04-23T16:57:51.727Z,6.40
2023-04-23T17:00:21.904Z,5.63
2023-04-23T17:02:56.408Z,2.83
2023-04-23T17:05:25.087Z,1.63
2023-04-23T17:07:54.985Z,4.63
2023-04-23T17:10:32.817Z,8.87
2023-04-23T17:13:00.430Z,3.27
2023-04-23T17:15:28.259Z,2.03
2023-04-23T17:17:57.430Z,2.20
2023-04-23T17:20:27.055Z,1.97
2023-04-23T17:22:55.120Z,2.60
2023-04-23T17:25:22.948Z,1.83
2023-04-23T17:28:00.076Z,2.03
2023-04-23T17:30:31.845Z,2.13
2023-04-23T17:33:01.658Z,1.50
2023-04-23T17:35:29.393Z,2.23
2023-04-23T17:37:57.122Z,2.07
2023-04-23T17:40:24.751Z,5.10
2023-04-23T17:42:52.508Z,5.40
2023-04-23T17:45:21.465Z,2.03
2023-04-23T17:47:49.126Z,1.90
2023-04-23T17:50:21.453Z,2.00
2023-04-23T17:52:49.296Z,1.80
2023-04-23T17:55:16.908Z,3.67
2023-04-23T17:57:44.550Z,2.50
2023-04-23T18:00:14.352Z,2.33
2023-04-23T18:02:44.408Z,3.33
2023-04-23T18:05:14.547Z,1.90
2023-04-23T18:07:44.851Z,2.97
2023-04-23T18:10:13.271Z,1.77
2023-04-23T18:12:41.482Z,3.70
2023-04-23T18:15:12.490Z,2.97
2023-04-23T18:17:40.633Z,1.90
2023-04-23T18:20:10.172Z,2.10
2023-04-23T18:22:38.385Z,2.70
2023-04-23T18:25:10.183Z,2.70
2023-04-23T18:27:45.755Z,2.20
2023-04-23T18:30:15.262Z,4.33
2023-04-23T18:32:48.013Z,5.20
2023-04-23T18:35:16.065Z,6.10
2023-04-23T18:37:49.782Z,3.30
2023-04-23T18:40:23.544Z,2.77
2023-04-23T18:42:52.952Z,3.13
2023-04-23T18:45:20.609Z,4.20
2023-04-23T18:47:52.349Z,2.00
2023-04-23T18:50:32.529Z,2.47
2023-04-23T18:53:00.220Z,2.57
2023-04-23T18:55:30.125Z,3.37
2023-04-23T18:57:58.647Z,2.10
2023-04-23T19:00:27.383Z,2.90
2023-04-23T19:02:56.654Z,2.10
2023-04-23T19:05:25.924Z,1.93
2023-04-23T19:07:54.575Z,2.90
2023-04-23T19:10:23.912Z,2.77
2023-04-23T19:12:52.914Z,1.50
2023-04-23T19:15:20.636Z,1.67
2023-04-23T19:17:49.044Z,2.07
2023-04-23T19:20:18.499Z,1.50
2023-04-23T19:22:47.539Z,1.63
2023-04-23T19:25:15.199Z,2.00
2023-04-23T19:27:43.004Z,1.70
2023-04-23T19:30:12.850Z,1.63
2023-04-23T19:32:40.640Z,4.40
2023-04-23T19:35:09.038Z,1.30
2023-04-23T19:37:36.940Z,1.70
2023-04-23T19:40:07.051Z,1.60
2023-04-23T19:42:35.930Z,2.03
2023-04-23T19:45:03.896Z,2.00
2023-04-23T19:47:35.681Z,1.63
2023-04-23T19:50:03.524Z,1.70
2023-04-23T19:52:31.161Z,2.80
2023-04-23T19:54:59.155Z,2.20
2023-04-23T19:57:26.766Z,4.07
2023-04-23T19:59:54.487Z,1.73
2023-04-23T20:02:22.155Z,2.53
2023-04-23T20:04:51.537Z,2.23
2023-04-23T20:07:19.374Z,2.97
2023-04-23T20:09:46.950Z,1.57
2023-04-23T20:12:15.002Z,3.03
2023-04-23T20:14:42.826Z,2.33
2023-04-23T20:17:10.760Z,1.73
2023-04-23T20:19:40.983Z,1.83
2023-04-23T20:22:12.473Z,1.73
2023-04-23T20:24:46.207Z,2.30
2023-04-23T20:27:14.089Z,2.10
2023-04-23T20:29:42.125Z,1.67
2023-04-23T20:32:10.057Z,2.20
2023-04-23T20:34:37.740Z,2.60
2023-04-23T20:37:06.691Z,2.50
2023-04-23T20:39:37.286Z,3.33
2023-04-23T20:42:05.475Z,3.07
2023-04-23T20:44:34.328Z,1.50
2023-04-23T20:47:04.865Z,2.80
2023-04-23T20:49:33.017Z,1.93
2023-04-23T20:52:00.884Z,3.40
2023-04-23T20:54:29.051Z,2.47
2023-04-23T20:56:58.584Z,3.27
2023-04-23T20:59:26.374Z,2.23
2023-04-23T21:01:54.103Z,1.63
2023-04-23T21:04:21.992Z,4.53
2023-04-23T21:06:50.999Z,2.60
2023-04-23T21:09:18.978Z,1.40
2023-04-23T21:11:46.610Z,1.60
2023-04-23T21:14:15.623Z,1.50
2023-04-23T21:16:43.468Z,1.77
2023-04-23T21:19:11.190Z,2.00
2023-04-23T21:21:38.825Z,1.70
2023-04-23T21:24:06.612Z,2.33
2023-04-23T21:26:34.254Z,2.63
2023-04-23T21:29:02.084Z,4.57
2023-04-23T21:31:42.399Z,2.30
2023-04-23T21:34:10.234Z,1.67
2023-04-23T21:36:38.072Z,2.70
2023-04-23T21:39:06.604Z,2.20
2023-04-23T21:41:34.357Z,2.03
2023-04-23T21:44:02.188Z,1.37
2023-04-23T21:46:30.395Z,1.87
2023-04-23T21:48:59.768Z,2.30
2023-04-23T21:51:28.028Z,1.10
2023-04-23T21:53:55.826Z,1.53
2023-04-23T21:56:23.713Z,1.50
2023-04-23T21:58:51.418Z,2.53
2023-04-23T22:01:19.235Z,1.43
2023-04-23T22:03:47.950Z,2.70
2023-04-23T22:06:17.504Z,2.83
2023-04-23T22:08:46.228Z,1.00
2023-04-23T22:11:14.547Z,1.20
2023-04-23T22:13:42.165Z,1.33
2023-04-23T22:16:20.694Z,2.53
2023-04-23T22:18:55.125Z,3.53
2023-04-23T22:21:24.115Z,1.93
2023-04-23T22:23:53.339Z,1.27
2023-04-23T22:26:22.236Z,3.43
2023-04-23T22:28:50.013Z,1.30
2023-04-23T22:31:18.501Z,2.60
2023-04-23T22:33:47.405Z,2.93
2023-04-23T22:36:15.102Z,1.30
2023-04-23T22:38:44.356Z,1.37
2023-04-23T22:41:12.158Z,1.13
2023-04-23T22:43:40.217Z,2.43
2023-04-23T22:46:07.956Z,1.30
2023-04-23T22:48:37.781Z,2.47
2023-04-23T22:51:05.636Z,1.90
2023-04-23T22:53:33.270Z,3.27
2023-04-23T22:56:02.403Z,1.97
2023-04-23T22:58:30.298Z,0.80
2023-04-23T23:00:58.264Z,1.53
2023-04-23T23:03:26.802Z,6.20
2023-04-23T23:05:54.851Z,2.73
2023-04-23T23:08:22.622Z,1.87
2023-04-23T23:10:50.288Z,2.80
2023-04-23T23:13:19.349Z,1.97
2023-04-23T23:15:46.974Z,2.90
2023-04-23T23:18:14.749Z,2.50
2023-04-23T23:20:44.614Z,1.20
2023-04-23T23:23:12.481Z,1.63
2023-04-23T23:25:40.173Z,1.13
2023-04-23T23:28:07.810Z,1.30
2023-04-23T23:30:36.931Z,3.73
2023-04-23T23:33:04.981Z,1.10
2023-04-23T23:35:32.789Z,1.00
2023-04-23T23:38:00.301Z,1.30
2023-04-23T23:40:27.869Z,1.47
2023-04-23T23:42:55.923Z,5.07
2023-04-23T23:45:23.755Z,1.40
2023-04-23T23:47:53.014Z,1.83
2023-04-23T23:50:20.903Z,2.97
2023-04-23T23:52:48.471Z,1.93
2023-04-23T23:55:16.305Z,3.60
2023-04-23T23:57:44.002Z,1.20
